This is the latest recevied weather packets stored in our database for station/object IZ6EGX-13. If no packets are shown the sender has not sent any weather packets the latest 10 day(s).
| Time | Temp. | Humidity | Pressure | Rain* | Wind** | Luminosity | Snow |
|---|---|---|---|---|---|---|---|
| 1777173376 | 18.89° C | 36% | 1015.2 hPa | 0 mm | - | - | - |
| 1777172776 | 18.33° C | 37% | 1015.3 hPa | 0 mm | - | - | - |
| 1777172176 | 18.33° C | 38% | 1015.2 hPa | 0 mm | - | - | - |
| 1777171576 | 18.33° C | 38% | 1015.2 hPa | 0 mm | - | - | - |
| 1777170976 | 18.89° C | 36% | 1015.1 hPa | 0 mm | - | - | - |
| 1777170376 | 19.44° C | 36% | 1015 hPa | 0 mm | - | - | - |
| 1777169776 | 19.44° C | 35% | 1015 hPa | 0 mm | - | - | - |
| 1777169176 | 19.44° C | 34% | 1015 hPa | 0 mm | - | - | - |
| 1777168576 | 18.89° C | 34% | 1015 hPa | 0 mm | - | - | - |
| 1777167976 | 18.89° C | 36% | 1015.1 hPa | 0 mm | - | - | - |
| 1777167376 | 18.89° C | 36% | 1015.2 hPa | 0 mm | - | - | - |
| 1777166776 | 18.89° C | 36% | 1015.1 hPa | 0 mm | - | - | - |
| 1777166176 | 18.89° C | 36% | 1015.1 hPa | 0 mm | - | - | - |
| 1777165579 | 18.89° C | 35% | 1015.1 hPa | 0 mm | - | - | - |
| 1777164976 | 18.89° C | 36% | 1015.1 hPa | 0 mm | - | - | - |
| 1777164376 | 18.89° C | 38% | 1015.1 hPa | 0 mm | - | - | - |
| 1777163776 | 18.89° C | 38% | 1015.1 hPa | 0 mm | - | - | - |
| 1777163176 | 19.44° C | 35% | 1015.2 hPa | 0 mm | - | - | - |
| 1777162576 | 20° C | 34% | 1015.1 hPa | 0 mm | - | - | - |
| 1777161976 | 20.56° C | 33% | 1015.1 hPa | 0 mm | - | - | - |
| 1777161376 | 20° C | 33% | 1015.1 hPa | 0 mm | - | - | - |
| 1777160776 | 20° C | 34% | 1015.2 hPa | 0 mm | - | - | - |
| 1777160176 | 20° C | 35% | 1015.2 hPa | 0 mm | - | - | - |
| 1777159575 | 20° C | 35% | 1015.3 hPa | 0 mm | - | - | - |
| 1777158976 | 20° C | 35% | 1015.3 hPa | 0 mm | - | - | - |
* Rain latest hour (hover to see other rain measurements)
** Current wind speed in m/s (hover to see current wind gust speed)